Elk, CA (95432)

6:34 AM PST on February 10, 2016 (GMT -0800)
South Downtown Elk | | Change Station
CLOSE
Current Station
Personal Weather Station
Location: Elk, CA
Elevation: 167 ft
Nearby Weather Stations

Elev 167 ft 39.13 °N, 123.72 °W | Updated 14 seconds ago

Clear
Clear
51.8 °F
Feels Like 51.8 °F
N
0.4
Wind Variable Wind from East
Gusts 2.5 mph

Today
High -- | Low -- °F
--% Chance of Precip.
Yesterday
High -- | Low -- °F
Precip. -- in
Pressure 30.27 in
Visibility 10.0 miles
Clouds Clear
Dew Point 28 °F
Humidity 40%
Rainfall 0.00 in
Snow Depth Not available.
7:12 AM 5:45 PM
Waxing Crescent, 5% visible
METAR KUKI 101356Z AUTO 00000KT 10SM CLR 04/03 A3028 RMK AO2 SLP250 T00440033
Pressure 30.27 in
Visibility 10.0 miles
Clouds Clear
Dew Point 28 °F
Humidity 40%
Rainfall 0.00 in
Snow Depth Not available.
7:12 AM 5:45 PM
Waxing Crescent, 5% visible
METAR KUKI 101356Z AUTO 00000KT 10SM CLR 04/03 A3028 RMK AO2 SLP250 T00440033

10-Day Weather Forecast

Almanac

Astronomy

Feb. 10, 2016 Rise Set
Actual Time
Civil Twilight
Nautical Twilight
Astronomical Twilight
Moon
Length of Visible Light
Length of Day
Tomorrow will be .
, % of the Moon is Illuminated

Today's Extremes

State Highs State Lows

Community

WunderPhotos

Upload Photos

1,891,855 photos uploaded!

WunderBlog® & News

Nearby

Air Quality

  Air Quality AQ Index Pollutant
Not available.

Snow Depth

Station Depth Elevation

Earthquake Activity

City Distance Mag. Time & Date
Minimum magnitude displayed is 2.5.

Coastal Water Temperatures

Place Temperature

Stations

Nearby Weather Stations

Station Location Temp. Windchill Dew Point Humidity Wind Precip. Elev Updated Type
                   

Watches & Warnings

There are currently no watches in effect.